sensor_id;sensor_type;location;lat;lon;timestamp;temperature;humidity
24162;DHT22;12318;51.262;7.066;2022-07-23T00:00:20;15.60;99.90
24162;DHT22;12318;51.262;7.066;2022-07-23T00:02:46;15.60;99.90
24162;DHT22;12318;51.262;7.066;2022-07-23T00:05:11;15.50;99.90
24162;DHT22;12318;51.262;7.066;2022-07-23T00:07:38;15.50;99.90
24162;DHT22;12318;51.262;7.066;2022-07-23T00:10:15;15.40;99.90
24162;DHT22;12318;51.262;7.066;2022-07-23T00:12:41;15.50;99.90
24162;DHT22;12318;51.262;7.066;2022-07-23T00:15:08;15.40;99.90
24162;DHT22;12318;51.262;7.066;2022-07-23T00:17:34;15.50;99.90
24162;DHT22;12318;51.262;7.066;2022-07-23T00:20:11;15.50;99.90
24162;DHT22;12318;51.262;7.066;2022-07-23T00:22:37;15.40;99.90
24162;DHT22;12318;51.262;7.066;2022-07-23T00:25:10;15.40;99.90
24162;DHT22;12318;51.262;7.066;2022-07-23T00:27:36;15.40;99.90
24162;DHT22;12318;51.262;7.066;2022-07-23T00:30:08;15.30;99.90
24162;DHT22;12318;51.262;7.066;2022-07-23T00:32:53;15.20;99.90
24162;DHT22;12318;51.262;7.066;2022-07-23T00:35:20;15.30;99.90
24162;DHT22;12318;51.262;7.066;2022-07-23T00:37:46;15.40;99.90
24162;DHT22;12318;51.262;7.066;2022-07-23T00:40:24;15.40;99.90
24162;DHT22;12318;51.262;7.066;2022-07-23T00:42:50;15.40;99.90
24162;DHT22;12318;51.262;7.066;2022-07-23T00:45:15;15.30;99.90
24162;DHT22;12318;51.262;7.066;2022-07-23T00:47:41;15.30;99.90
24162;DHT22;12318;51.262;7.066;2022-07-23T00:50:08;15.30;99.90
24162;DHT22;12318;51.262;7.066;2022-07-23T00:52:35;15.30;99.90
24162;DHT22;12318;51.262;7.066;2022-07-23T00:55:02;15.20;99.90
24162;DHT22;12318;51.262;7.066;2022-07-23T00:57:28;15.30;99.90
24162;DHT22;12318;51.262;7.066;2022-07-23T01:00:14;15.30;99.90
24162;DHT22;12318;51.262;7.066;2022-07-23T01:02:40;15.30;99.90
24162;DHT22;12318;51.262;7.066;2022-07-23T01:05:07;15.40;99.90
24162;DHT22;12318;51.262;7.066;2022-07-23T01:07:33;15.40;99.90
24162;DHT22;12318;51.262;7.066;2022-07-23T01:10:00;15.50;99.90
24162;DHT22;12318;51.262;7.066;2022-07-23T01:12:26;15.60;99.90
24162;DHT22;12318;51.262;7.066;2022-07-23T01:14:59;15.60;99.90
24162;DHT22;12318;51.262;7.066;2022-07-23T01:17:25;15.40;99.90
24162;DHT22;12318;51.262;7.066;2022-07-23T01:19:51;15.40;99.90
24162;DHT22;12318;51.262;7.066;2022-07-23T01:22:19;15.40;99.90
24162;DHT22;12318;51.262;7.066;2022-07-23T01:24:45;15.50;99.90
24162;DHT22;12318;51.262;7.066;2022-07-23T01:27:11;15.60;99.90
24162;DHT22;12318;51.262;7.066;2022-07-23T01:29:44;15.50;99.90
24162;DHT22;12318;51.262;7.066;2022-07-23T01:32:09;15.60;99.90
24162;DHT22;12318;51.262;7.066;2022-07-23T01:34:35;15.60;99.90
24162;DHT22;12318;51.262;7.066;2022-07-23T01:37:01;15.70;99.90
24162;DHT22;12318;51.262;7.066;2022-07-23T01:39:30;15.60;99.90
24162;DHT22;12318;51.262;7.066;2022-07-23T01:41:55;15.40;99.90
24162;DHT22;12318;51.262;7.066;2022-07-23T01:44:21;15.40;99.90
24162;DHT22;12318;51.262;7.066;2022-07-23T01:46:47;15.30;99.90
24162;DHT22;12318;51.262;7.066;2022-07-23T01:49:29;15.20;99.90
24162;DHT22;12318;51.262;7.066;2022-07-23T01:51:55;15.20;99.90
24162;DHT22;12318;51.262;7.066;2022-07-23T01:54:32;15.10;99.90
24162;DHT22;12318;51.262;7.066;2022-07-23T01:56:58;15.10;99.90
24162;DHT22;12318;51.262;7.066;2022-07-23T01:59:26;15.20;99.90
24162;DHT22;12318;51.262;7.066;2022-07-23T02:01:53;15.10;99.90
24162;DHT22;12318;51.262;7.066;2022-07-23T02:04:23;15.10;99.90
24162;DHT22;12318;51.262;7.066;2022-07-23T02:06:49;15.10;99.90
24162;DHT22;12318;51.262;7.066;2022-07-23T02:09:15;15.10;99.90
24162;DHT22;12318;51.262;7.066;2022-07-23T02:11:41;15.10;99.90
24162;DHT22;12318;51.262;7.066;2022-07-23T02:14:07;15.20;99.90
24162;DHT22;12318;51.262;7.066;2022-07-23T02:16:33;15.20;99.90
24162;DHT22;12318;51.262;7.066;2022-07-23T02:19:04;15.30;99.90
24162;DHT22;12318;51.262;7.066;2022-07-23T02:21:29;15.40;99.90
24162;DHT22;12318;51.262;7.066;2022-07-23T02:23:55;15.40;99.90
24162;DHT22;12318;51.262;7.066;2022-07-23T02:26:20;15.20;99.90
24162;DHT22;12318;51.262;7.066;2022-07-23T02:28:46;15.10;99.90
24162;DHT22;12318;51.262;7.066;2022-07-23T02:31:12;15.20;99.90
24162;DHT22;12318;51.262;7.066;2022-07-23T02:33:38;15.20;99.90
24162;DHT22;12318;51.262;7.066;2022-07-23T02:36:03;15.20;99.90
24162;DHT22;12318;51.262;7.066;2022-07-23T02:38:30;15.20;99.90
24162;DHT22;12318;51.262;7.066;2022-07-23T02:40:55;15.30;99.90
24162;DHT22;12318;51.262;7.066;2022-07-23T02:43:21;15.40;99.90
24162;DHT22;12318;51.262;7.066;2022-07-23T02:45:47;15.40;99.90
24162;DHT22;12318;51.262;7.066;2022-07-23T02:48:12;15.40;99.90
24162;DHT22;12318;51.262;7.066;2022-07-23T02:51:00;15.40;99.90
24162;DHT22;12318;51.262;7.066;2022-07-23T02:53:26;15.20;99.90
24162;DHT22;12318;51.262;7.066;2022-07-23T02:55:51;15.10;99.90
24162;DHT22;12318;51.262;7.066;2022-07-23T02:58:17;15.10;99.90
24162;DHT22;12318;51.262;7.066;2022-07-23T03:00:43;15.20;99.90
24162;DHT22;12318;51.262;7.066;2022-07-23T03:03:09;15.20;99.90
24162;DHT22;12318;51.262;7.066;2022-07-23T03:05:35;15.10;99.90
24162;DHT22;12318;51.262;7.066;2022-07-23T03:08:01;15.10;99.90
24162;DHT22;12318;51.262;7.066;2022-07-23T03:10:28;15.00;99.90
24162;DHT22;12318;51.262;7.066;2022-07-23T03:12:53;15.10;99.90
24162;DHT22;12318;51.262;7.066;2022-07-23T03:15:19;15.10;99.90
24162;DHT22;12318;51.262;7.066;2022-07-23T03:17:45;15.00;99.90
24162;DHT22;12318;51.262;7.066;2022-07-23T03:20:16;15.00;99.90
24162;DHT22;12318;51.262;7.066;2022-07-23T03:22:42;15.10;99.90
24162;DHT22;12318;51.262;7.066;2022-07-23T03:25:08;15.10;99.90
24162;DHT22;12318;51.262;7.066;2022-07-23T03:27:34;15.10;99.90
24162;DHT22;12318;51.262;7.066;2022-07-23T03:30:09;15.10;99.90
24162;DHT22;12318;51.262;7.066;2022-07-23T03:32:35;14.90;99.90
24162;DHT22;12318;51.262;7.066;2022-07-23T03:35:01;14.80;99.90
24162;DHT22;12318;51.262;7.066;2022-07-23T03:37:28;14.90;99.90
24162;DHT22;12318;51.262;7.066;2022-07-23T03:40:00;14.90;99.90
24162;DHT22;12318;51.262;7.066;2022-07-23T03:42:26;14.90;99.90
24162;DHT22;12318;51.262;7.066;2022-07-23T03:44:52;14.90;99.90
24162;DHT22;12318;51.262;7.066;2022-07-23T03:47:18;15.00;99.90
24162;DHT22;12318;51.262;7.066;2022-07-23T03:50:07;15.00;99.90
24162;DHT22;12318;51.262;7.066;2022-07-23T03:52:33;15.10;99.90
24162;DHT22;12318;51.262;7.066;2022-07-23T03:54:59;15.10;99.90
24162;DHT22;12318;51.262;7.066;2022-07-23T03:57:24;15.10;99.90
24162;DHT22;12318;51.262;7.066;2022-07-23T04:00:00;15.10;99.90
24162;DHT22;12318;51.262;7.066;2022-07-23T04:02:26;15.00;99.90
24162;DHT22;12318;51.262;7.066;2022-07-23T04:04:51;15.00;99.90
24162;DHT22;12318;51.262;7.066;2022-07-23T04:07:17;14.90;99.90
24162;DHT22;12318;51.262;7.066;2022-07-23T04:09:50;14.90;99.90
24162;DHT22;12318;51.262;7.066;2022-07-23T04:12:15;14.90;99.90
24162;DHT22;12318;51.262;7.066;2022-07-23T04:14:41;15.00;99.90
24162;DHT22;12318;51.262;7.066;2022-07-23T04:17:07;15.10;99.90
24162;DHT22;12318;51.262;7.066;2022-07-23T04:19:33;15.20;99.90
24162;DHT22;12318;51.262;7.066;2022-07-23T04:21:59;15.00;99.90
24162;DHT22;12318;51.262;7.066;2022-07-23T04:24:24;15.00;99.90
24162;DHT22;12318;51.262;7.066;2022-07-23T04:26:50;14.80;99.90
24162;DHT22;12318;51.262;7.066;2022-07-23T04:29:44;14.50;99.90
24162;DHT22;12318;51.262;7.066;2022-07-23T04:32:10;14.30;99.90
24162;DHT22;12318;51.262;7.066;2022-07-23T04:34:36;14.40;99.90
24162;DHT22;12318;51.262;7.066;2022-07-23T04:37:01;14.50;99.90
24162;DHT22;12318;51.262;7.066;2022-07-23T04:39:42;14.60;99.90
24162;DHT22;12318;51.262;7.066;2022-07-23T04:42:07;14.70;99.90
24162;DHT22;12318;51.262;7.066;2022-07-23T04:44:33;14.80;99.90
24162;DHT22;12318;51.262;7.066;2022-07-23T04:46:59;14.80;99.90
24162;DHT22;12318;51.262;7.066;2022-07-23T04:49:24;14.80;99.90
24162;DHT22;12318;51.262;7.066;2022-07-23T04:51:50;14.90;99.90
24162;DHT22;12318;51.262;7.066;2022-07-23T04:54:15;15.10;99.90
24162;DHT22;12318;51.262;7.066;2022-07-23T04:56:43;15.40;99.90
24162;DHT22;12318;51.262;7.066;2022-07-23T04:59:08;15.40;99.90
24162;DHT22;12318;51.262;7.066;2022-07-23T05:01:34;15.10;99.90
24162;DHT22;12318;51.262;7.066;2022-07-23T05:04:00;15.00;99.90
24162;DHT22;12318;51.262;7.066;2022-07-23T05:06:26;15.00;99.90
24162;DHT22;12318;51.262;7.066;2022-07-23T05:09:06;15.00;99.90
24162;DHT22;12318;51.262;7.066;2022-07-23T05:11:32;14.90;99.90
24162;DHT22;12318;51.262;7.066;2022-07-23T05:13:58;14.90;99.90
24162;DHT22;12318;51.262;7.066;2022-07-23T05:16:23;14.80;99.90
24162;DHT22;12318;51.262;7.066;2022-07-23T05:18:49;14.70;99.90
24162;DHT22;12318;51.262;7.066;2022-07-23T05:21:15;14.70;99.90
24162;DHT22;12318;51.262;7.066;2022-07-23T05:23:40;14.70;99.90
24162;DHT22;12318;51.262;7.066;2022-07-23T05:26:06;14.70;99.90
24162;DHT22;12318;51.262;7.066;2022-07-23T05:28:34;14.70;99.90
24162;DHT22;12318;51.262;7.066;2022-07-23T05:31:00;14.50;99.90
24162;DHT22;12318;51.262;7.066;2022-07-23T05:33:25;14.50;99.90
24162;DHT22;12318;51.262;7.066;2022-07-23T05:35:51;14.40;99.90
24162;DHT22;12318;51.262;7.066;2022-07-23T05:38:17;14.40;99.90
24162;DHT22;12318;51.262;7.066;2022-07-23T05:40:42;14.60;99.90
24162;DHT22;12318;51.262;7.066;2022-07-23T05:43:08;14.60;99.90
24162;DHT22;12318;51.262;7.066;2022-07-23T05:45:34;14.60;99.90
24162;DHT22;12318;51.262;7.066;2022-07-23T05:47:59;14.70;99.90
24162;DHT22;12318;51.262;7.066;2022-07-23T05:50:26;14.70;99.90
24162;DHT22;12318;51.262;7.066;2022-07-23T05:52:52;14.70;99.90
24162;DHT22;12318;51.262;7.066;2022-07-23T05:55:18;14.40;99.90
24162;DHT22;12318;51.262;7.066;2022-07-23T05:57:43;14.60;99.90
24162;DHT22;12318;51.262;7.066;2022-07-23T06:00:28;14.60;99.90
24162;DHT22;12318;51.262;7.066;2022-07-23T06:02:54;14.60;99.90
24162;DHT22;12318;51.262;7.066;2022-07-23T06:05:19;14.60;99.90
24162;DHT22;12318;51.262;7.066;2022-07-23T06:07:45;14.70;99.90
24162;DHT22;12318;51.262;7.066;2022-07-23T06:10:12;14.70;99.90
24162;DHT22;12318;51.262;7.066;2022-07-23T06:12:38;14.80;99.90
24162;DHT22;12318;51.262;7.066;2022-07-23T06:15:04;14.80;99.90
24162;DHT22;12318;51.262;7.066;2022-07-23T06:17:30;14.60;99.90
24162;DHT22;12318;51.262;7.066;2022-07-23T06:20:15;14.70;99.90
24162;DHT22;12318;51.262;7.066;2022-07-23T06:22:41;14.90;99.90
24162;DHT22;12318;51.262;7.066;2022-07-23T06:25:07;14.90;99.90
24162;DHT22;12318;51.262;7.066;2022-07-23T06:27:33;15.10;99.90
24162;DHT22;12318;51.262;7.066;2022-07-23T06:30:13;14.90;99.90
24162;DHT22;12318;51.262;7.066;2022-07-23T06:32:41;15.20;99.90
24162;DHT22;12318;51.262;7.066;2022-07-23T06:35:07;15.20;99.90
24162;DHT22;12318;51.262;7.066;2022-07-23T06:37:33;15.20;99.90
24162;DHT22;12318;51.262;7.066;2022-07-23T06:40:19;15.30;99.90
24162;DHT22;12318;51.262;7.066;2022-07-23T06:42:45;15.40;99.90
24162;DHT22;12318;51.262;7.066;2022-07-23T06:45:11;15.60;99.90
24162;DHT22;12318;51.262;7.066;2022-07-23T06:47:37;15.80;99.90
24162;DHT22;12318;51.262;7.066;2022-07-23T06:50:05;15.90;99.90
24162;DHT22;12318;51.262;7.066;2022-07-23T06:52:31;15.90;99.90
24162;DHT22;12318;51.262;7.066;2022-07-23T06:54:56;16.10;99.90
24162;DHT22;12318;51.262;7.066;2022-07-23T06:57:22;15.90;99.90
24162;DHT22;12318;51.262;7.066;2022-07-23T06:59:49;16.00;99.90
24162;DHT22;12318;51.262;7.066;2022-07-23T07:02:15;16.20;99.90
24162;DHT22;12318;51.262;7.066;2022-07-23T07:04:41;16.10;99.90
24162;DHT22;12318;51.262;7.066;2022-07-23T07:07:06;16.40;99.90
24162;DHT22;12318;51.262;7.066;2022-07-23T07:09:32;16.50;99.90
24162;DHT22;12318;51.262;7.066;2022-07-23T07:11:58;16.50;99.90
24162;DHT22;12318;51.262;7.066;2022-07-23T07:14:23;16.60;99.90
24162;DHT22;12318;51.262;7.066;2022-07-23T07:16:49;16.60;99.90
24162;DHT22;12318;51.262;7.066;2022-07-23T07:19:20;16.70;99.90
24162;DHT22;12318;51.262;7.066;2022-07-23T07:21:46;16.90;99.90
24162;DHT22;12318;51.262;7.066;2022-07-23T07:24:12;17.10;99.90
24162;DHT22;12318;51.262;7.066;2022-07-23T07:26:38;17.20;99.90
24162;DHT22;12318;51.262;7.066;2022-07-23T07:29:05;17.50;99.90
24162;DHT22;12318;51.262;7.066;2022-07-23T07:31:31;17.60;99.90
24162;DHT22;12318;51.262;7.066;2022-07-23T07:33:56;18.00;99.90
24162;DHT22;12318;51.262;7.066;2022-07-23T07:36:23;18.00;99.90
24162;DHT22;12318;51.262;7.066;2022-07-23T07:39:07;17.90;99.90
24162;DHT22;12318;51.262;7.066;2022-07-23T07:41:35;18.10;99.90
24162;DHT22;12318;51.262;7.066;2022-07-23T07:44:01;18.20;99.90
24162;DHT22;12318;51.262;7.066;2022-07-23T07:46:27;18.30;99.90
24162;DHT22;12318;51.262;7.066;2022-07-23T07:48:56;18.60;99.90
24162;DHT22;12318;51.262;7.066;2022-07-23T07:51:22;18.60;99.90
24162;DHT22;12318;51.262;7.066;2022-07-23T07:53:47;18.60;99.90
24162;DHT22;12318;51.262;7.066;2022-07-23T07:56:13;18.70;99.90
24162;DHT22;12318;51.262;7.066;2022-07-23T07:58:48;19.10;99.90
24162;DHT22;12318;51.262;7.066;2022-07-23T08:01:14;18.60;99.90
24162;DHT22;12318;51.262;7.066;2022-07-23T08:03:39;18.70;99.90
24162;DHT22;12318;51.262;7.066;2022-07-23T08:06:05;18.70;99.90
24162;DHT22;12318;51.262;7.066;2022-07-23T08:08:37;18.10;99.90
24162;DHT22;12318;51.262;7.066;2022-07-23T08:11:02;18.20;99.90
24162;DHT22;12318;51.262;7.066;2022-07-23T08:13:28;18.00;99.90
24162;DHT22;12318;51.262;7.066;2022-07-23T08:15:54;18.10;99.90
24162;DHT22;12318;51.262;7.066;2022-07-23T08:18:20;18.20;99.90
24162;DHT22;12318;51.262;7.066;2022-07-23T08:20:45;18.50;99.90
24162;DHT22;12318;51.262;7.066;2022-07-23T08:23:11;18.80;99.90
24162;DHT22;12318;51.262;7.066;2022-07-23T08:25:42;18.80;99.90
24162;DHT22;12318;51.262;7.066;2022-07-23T08:28:10;18.80;99.90
24162;DHT22;12318;51.262;7.066;2022-07-23T08:30:37;18.90;99.90
24162;DHT22;12318;51.262;7.066;2022-07-23T08:33:08;19.20;99.90
24162;DHT22;12318;51.262;7.066;2022-07-23T08:35:38;19.10;99.90
24162;DHT22;12318;51.262;7.066;2022-07-23T08:38:06;19.00;99.90
24162;DHT22;12318;51.262;7.066;2022-07-23T08:40:35;19.10;99.90
24162;DHT22;12318;51.262;7.066;2022-07-23T08:43:05;19.40;99.90
24162;DHT22;12318;51.262;7.066;2022-07-23T08:45:36;19.50;99.90
24162;DHT22;12318;51.262;7.066;2022-07-23T08:48:06;19.60;99.90
24162;DHT22;12318;51.262;7.066;2022-07-23T08:50:32;19.20;99.90
24162;DHT22;12318;51.262;7.066;2022-07-23T08:53:00;19.30;99.90
24162;DHT22;12318;51.262;7.066;2022-07-23T08:55:26;19.30;99.90
24162;DHT22;12318;51.262;7.066;2022-07-23T08:57:53;19.10;99.90
24162;DHT22;12318;51.262;7.066;2022-07-23T09:00:21;19.40;99.90
24162;DHT22;12318;51.262;7.066;2022-07-23T09:02:47;19.60;99.90
24162;DHT22;12318;51.262;7.066;2022-07-23T09:05:15;19.80;99.90
24162;DHT22;12318;51.262;7.066;2022-07-23T09:10:59;19.80;99.90
24162;DHT22;12318;51.262;7.066;2022-07-23T09:13:30;20.00;99.90
24162;DHT22;12318;51.262;7.066;2022-07-23T09:15:58;19.70;99.90
24162;DHT22;12318;51.262;7.066;2022-07-23T09:18:38;20.00;99.90
24162;DHT22;12318;51.262;7.066;2022-07-23T09:21:13;19.80;99.90
24162;DHT22;12318;51.262;7.066;2022-07-23T09:23:52;19.70;99.90
24162;DHT22;12318;51.262;7.066;2022-07-23T09:26:24;19.80;99.90
24162;DHT22;12318;51.262;7.066;2022-07-23T09:29:13;20.10;99.90
24162;DHT22;12318;51.262;7.066;2022-07-23T09:31:55;20.00;99.90
24162;DHT22;12318;51.262;7.066;2022-07-23T09:34:24;20.00;99.90
24162;DHT22;12318;51.262;7.066;2022-07-23T09:36:57;20.00;99.90
24162;DHT22;12318;51.262;7.066;2022-07-23T09:39:28;20.50;99.90
24162;DHT22;12318;51.262;7.066;2022-07-23T09:41:55;20.40;99.90
24162;DHT22;12318;51.262;7.066;2022-07-23T09:44:21;20.40;99.90
24162;DHT22;12318;51.262;7.066;2022-07-23T09:46:49;20.40;99.90
24162;DHT22;12318;51.262;7.066;2022-07-23T09:49:27;20.60;99.90
24162;DHT22;12318;51.262;7.066;2022-07-23T09:51:56;20.80;99.90
24162;DHT22;12318;51.262;7.066;2022-07-23T09:54:23;21.10;99.90
24162;DHT22;12318;51.262;7.066;2022-07-23T09:56:51;20.70;99.90
24162;DHT22;12318;51.262;7.066;2022-07-23T09:59:30;20.30;99.90
24162;DHT22;12318;51.262;7.066;2022-07-23T10:01:57;20.10;99.90
24162;DHT22;12318;51.262;7.066;2022-07-23T10:04:26;20.00;99.90
24162;DHT22;12318;51.262;7.066;2022-07-23T10:06:54;20.30;99.90
24162;DHT22;12318;51.262;7.066;2022-07-23T10:09:28;20.10;99.90
24162;DHT22;12318;51.262;7.066;2022-07-23T10:11:56;20.90;99.90
24162;DHT22;12318;51.262;7.066;2022-07-23T10:14:48;21.30;99.90
24162;DHT22;12318;51.262;7.066;2022-07-23T10:17:15;21.50;99.90
24162;DHT22;12318;51.262;7.066;2022-07-23T10:19:41;21.30;99.90
24162;DHT22;12318;51.262;7.066;2022-07-23T10:22:19;21.30;99.90
24162;DHT22;12318;51.262;7.066;2022-07-23T10:24:58;20.90;99.90
24162;DHT22;12318;51.262;7.066;2022-07-23T10:30:32;21.20;99.90
24162;DHT22;12318;51.262;7.066;2022-07-23T10:33:38;21.10;99.90
24162;DHT22;12318;51.262;7.066;2022-07-23T10:36:37;21.30;99.90
24162;DHT22;12318;51.262;7.066;2022-07-23T10:39:13;21.30;99.90
24162;DHT22;12318;51.262;7.066;2022-07-23T10:41:41;21.60;99.90
24162;DHT22;12318;51.262;7.066;2022-07-23T10:44:11;21.60;99.90
24162;DHT22;12318;51.262;7.066;2022-07-23T10:47:09;21.20;99.90
24162;DHT22;12318;51.262;7.066;2022-07-23T10:49:48;21.50;99.90
24162;DHT22;12318;51.262;7.066;2022-07-23T10:57:27;22.00;99.90
24162;DHT22;12318;51.262;7.066;2022-07-23T11:02:31;21.90;99.90
24162;DHT22;12318;51.262;7.066;2022-07-23T11:05:17;22.00;99.90
24162;DHT22;12318;51.262;7.066;2022-07-23T11:10:55;22.20;99.90
24162;DHT22;12318;51.262;7.066;2022-07-23T11:24:00;21.80;99.90
24162;DHT22;12318;51.262;7.066;2022-07-23T11:29:45;21.90;99.90
24162;DHT22;12318;51.262;7.066;2022-07-23T11:32:28;22.10;99.90
24162;DHT22;12318;51.262;7.066;2022-07-23T11:34:54;22.30;99.90
24162;DHT22;12318;51.262;7.066;2022-07-23T11:37:33;22.40;99.90
24162;DHT22;12318;51.262;7.066;2022-07-23T11:40:04;22.70;99.90
24162;DHT22;12318;51.262;7.066;2022-07-23T11:42:31;22.90;99.90
24162;DHT22;12318;51.262;7.066;2022-07-23T11:44:57;22.90;99.90
24162;DHT22;12318;51.262;7.066;2022-07-23T11:47:25;23.00;99.90
24162;DHT22;12318;51.262;7.066;2022-07-23T11:49:57;23.10;99.90
24162;DHT22;12318;51.262;7.066;2022-07-23T11:52:24;22.80;99.90
24162;DHT22;12318;51.262;7.066;2022-07-23T11:54:58;22.60;99.90
24162;DHT22;12318;51.262;7.066;2022-07-23T11:57:29;22.20;99.90
24162;DHT22;12318;51.262;7.066;2022-07-23T12:00:17;22.20;99.90
24162;DHT22;12318;51.262;7.066;2022-07-23T12:02:45;22.40;99.90
24162;DHT22;12318;51.262;7.066;2022-07-23T12:05:16;22.10;99.90
24162;DHT22;12318;51.262;7.066;2022-07-23T12:07:44;22.20;99.90
24162;DHT22;12318;51.262;7.066;2022-07-23T12:10:35;22.50;99.90
24162;DHT22;12318;51.262;7.066;2022-07-23T12:13:10;22.70;99.90
24162;DHT22;12318;51.262;7.066;2022-07-23T12:15:43;22.60;99.90
24162;DHT22;12318;51.262;7.066;2022-07-23T12:18:12;22.50;99.90
24162;DHT22;12318;51.262;7.066;2022-07-23T12:20:50;22.60;99.90
24162;DHT22;12318;51.262;7.066;2022-07-23T12:23:18;22.80;99.90
24162;DHT22;12318;51.262;7.066;2022-07-23T12:25:45;23.00;99.90
24162;DHT22;12318;51.262;7.066;2022-07-23T12:28:33;23.10;99.90
24162;DHT22;12318;51.262;7.066;2022-07-23T12:31:07;23.20;99.90
24162;DHT22;12318;51.262;7.066;2022-07-23T12:33:38;22.80;99.90
24162;DHT22;12318;51.262;7.066;2022-07-23T12:36:07;22.90;99.90
24162;DHT22;12318;51.262;7.066;2022-07-23T12:41:51;23.10;99.90
24162;DHT22;12318;51.262;7.066;2022-07-23T12:44:17;23.10;99.90
24162;DHT22;12318;51.262;7.066;2022-07-23T12:46:42;23.20;99.90
24162;DHT22;12318;51.262;7.066;2022-07-23T12:49:36;23.10;99.90
24162;DHT22;12318;51.262;7.066;2022-07-23T12:52:15;23.50;99.90
24162;DHT22;12318;51.262;7.066;2022-07-23T12:54:41;23.70;99.90
24162;DHT22;12318;51.262;7.066;2022-07-23T12:57:46;23.70;99.90
24162;DHT22;12318;51.262;7.066;2022-07-23T13:00:12;23.60;99.90
24162;DHT22;12318;51.262;7.066;2022-07-23T13:02:47;23.50;99.90
24162;DHT22;12318;51.262;7.066;2022-07-23T13:05:12;23.30;99.90
24162;DHT22;12318;51.262;7.066;2022-07-23T13:07:38;23.40;99.90
24162;DHT22;12318;51.262;7.066;2022-07-23T13:10:10;23.40;99.90
24162;DHT22;12318;51.262;7.066;2022-07-23T13:12:37;23.50;99.90
24162;DHT22;12318;51.262;7.066;2022-07-23T13:15:04;23.30;99.90
24162;DHT22;12318;51.262;7.066;2022-07-23T13:17:29;23.30;99.90
24162;DHT22;12318;51.262;7.066;2022-07-23T13:20:02;23.10;99.90
24162;DHT22;12318;51.262;7.066;2022-07-23T13:22:28;23.00;99.90
24162;DHT22;12318;51.262;7.066;2022-07-23T13:24:54;23.10;99.90
24162;DHT22;12318;51.262;7.066;2022-07-23T13:27:20;23.20;99.90
24162;DHT22;12318;51.262;7.066;2022-07-23T13:29:46;23.30;99.90
24162;DHT22;12318;51.262;7.066;2022-07-23T13:32:12;23.60;99.90
24162;DHT22;12318;51.262;7.066;2022-07-23T13:34:38;23.90;99.90
24162;DHT22;12318;51.262;7.066;2022-07-23T13:37:04;23.80;99.90
24162;DHT22;12318;51.262;7.066;2022-07-23T13:39:35;23.90;99.90
24162;DHT22;12318;51.262;7.066;2022-07-23T13:42:01;24.00;99.90
24162;DHT22;12318;51.262;7.066;2022-07-23T13:44:27;23.50;99.90
24162;DHT22;12318;51.262;7.066;2022-07-23T13:46:52;23.50;99.90
24162;DHT22;12318;51.262;7.066;2022-07-23T13:49:51;23.60;99.90
24162;DHT22;12318;51.262;7.066;2022-07-23T13:52:17;23.90;99.90
24162;DHT22;12318;51.262;7.066;2022-07-23T13:54:43;24.00;99.90
24162;DHT22;12318;51.262;7.066;2022-07-23T13:57:08;24.20;99.90
24162;DHT22;12318;51.262;7.066;2022-07-23T13:59:41;24.40;99.90
24162;DHT22;12318;51.262;7.066;2022-07-23T14:02:07;24.50;99.50
24162;DHT22;12318;51.262;7.066;2022-07-23T14:04:33;24.40;99.90
24162;DHT22;12318;51.262;7.066;2022-07-23T14:06:58;24.40;99.90
24162;DHT22;12318;51.262;7.066;2022-07-23T14:09:24;24.40;99.00
24162;DHT22;12318;51.262;7.066;2022-07-23T14:11:50;24.60;99.00
24162;DHT22;12318;51.262;7.066;2022-07-23T14:14:17;24.70;99.80
24162;DHT22;12318;51.262;7.066;2022-07-23T14:16:42;24.70;99.50
24162;DHT22;12318;51.262;7.066;2022-07-23T14:19:20;24.60;99.00
24162;DHT22;12318;51.262;7.066;2022-07-23T14:21:46;24.60;98.30
24162;DHT22;12318;51.262;7.066;2022-07-23T14:24:14;24.50;99.00
24162;DHT22;12318;51.262;7.066;2022-07-23T14:26:39;24.50;97.90
24162;DHT22;12318;51.262;7.066;2022-07-23T14:29:10;24.70;99.50
24162;DHT22;12318;51.262;7.066;2022-07-23T14:31:35;24.70;99.60
24162;DHT22;12318;51.262;7.066;2022-07-23T14:34:01;24.60;99.30
24162;DHT22;12318;51.262;7.066;2022-07-23T14:36:28;24.60;97.60
24162;DHT22;12318;51.262;7.066;2022-07-23T14:38:54;24.70;99.10
24162;DHT22;12318;51.262;7.066;2022-07-23T14:41:22;24.70;98.40
24162;DHT22;12318;51.262;7.066;2022-07-23T14:43:49;24.60;97.70
24162;DHT22;12318;51.262;7.066;2022-07-23T14:46:15;24.60;99.00
24162;DHT22;12318;51.262;7.066;2022-07-23T14:48:42;24.60;96.70
24162;DHT22;12318;51.262;7.066;2022-07-23T14:51:07;24.60;99.00
24162;DHT22;12318;51.262;7.066;2022-07-23T14:53:34;24.50;99.90
24162;DHT22;12318;51.262;7.066;2022-07-23T14:55:59;24.40;98.70
24162;DHT22;12318;51.262;7.066;2022-07-23T14:58:25;24.60;99.00
24162;DHT22;12318;51.262;7.066;2022-07-23T15:01:00;24.80;97.20
24162;DHT22;12318;51.262;7.066;2022-07-23T15:03:26;24.50;97.90
24162;DHT22;12318;51.262;7.066;2022-07-23T15:05:52;24.50;98.10
24162;DHT22;12318;51.262;7.066;2022-07-23T15:08:17;24.40;99.80
24162;DHT22;12318;51.262;7.066;2022-07-23T15:10:48;24.30;97.70
24162;DHT22;12318;51.262;7.066;2022-07-23T15:13:14;24.40;98.10
24162;DHT22;12318;51.262;7.066;2022-07-23T15:15:40;24.70;97.20
24162;DHT22;12318;51.262;7.066;2022-07-23T15:18:05;24.90;98.50
24162;DHT22;12318;51.262;7.066;2022-07-23T15:20:39;24.60;95.50
24162;DHT22;12318;51.262;7.066;2022-07-23T15:23:05;24.70;96.80
24162;DHT22;12318;51.262;7.066;2022-07-23T15:25:31;25.40;96.80
24162;DHT22;12318;51.262;7.066;2022-07-23T15:28:02;25.60;95.20
24162;DHT22;12318;51.262;7.066;2022-07-23T15:30:28;26.10;94.80
24162;DHT22;12318;51.262;7.066;2022-07-23T15:32:54;26.40;94.90
24162;DHT22;12318;51.262;7.066;2022-07-23T15:35:20;26.70;94.50
24162;DHT22;12318;51.262;7.066;2022-07-23T15:37:46;26.80;94.60
24162;DHT22;12318;51.262;7.066;2022-07-23T15:40:19;26.90;94.20
24162;DHT22;12318;51.262;7.066;2022-07-23T15:42:45;26.60;94.80
24162;DHT22;12318;51.262;7.066;2022-07-23T15:45:10;27.00;95.20
24162;DHT22;12318;51.262;7.066;2022-07-23T15:47:36;26.80;94.60
24162;DHT22;12318;51.262;7.066;2022-07-23T15:50:07;26.30;95.10
24162;DHT22;12318;51.262;7.066;2022-07-23T15:52:33;26.20;96.30
24162;DHT22;12318;51.262;7.066;2022-07-23T15:54:59;25.90;93.80
24162;DHT22;12318;51.262;7.066;2022-07-23T15:57:24;26.10;94.50
24162;DHT22;12318;51.262;7.066;2022-07-23T15:59:59;26.00;93.70
24162;DHT22;12318;51.262;7.066;2022-07-23T16:02:25;25.90;95.40
24162;DHT22;12318;51.262;7.066;2022-07-23T16:04:51;26.10;94.40
24162;DHT22;12318;51.262;7.066;2022-07-23T16:07:19;25.70;95.80
24162;DHT22;12318;51.262;7.066;2022-07-23T16:09:50;25.80;95.60
24162;DHT22;12318;51.262;7.066;2022-07-23T16:12:16;25.70;95.50
24162;DHT22;12318;51.262;7.066;2022-07-23T16:14:42;25.50;93.00